sensor_id;sensor_type;location;lat;lon;timestamp;noise_LAeq;noise_LA_min;noise_LA_max;noise_LA01;noise_LA95
46584;Laerm;32309;48.858;8.252;2023-01-09T00:01:29;42.68;38.05;56.53;;
46584;Laerm;32309;48.858;8.252;2023-01-09T00:03:29;42.33;38.81;50.59;;
46584;Laerm;32309;48.858;8.252;2023-01-09T00:07:30;41.79;38.21;60.05;;
46584;Laerm;32309;48.858;8.252;2023-01-09T00:09:30;41.53;38.21;53.47;;
46584;Laerm;32309;48.858;8.252;2023-01-09T00:11:30;41.86;38.67;58.16;;
46584;Laerm;32309;48.858;8.252;2023-01-09T00:13:31;42.67;38.95;58.77;;
46584;Laerm;32309;48.858;8.252;2023-01-09T00:15:32;42.76;39.58;53.54;;
46584;Laerm;32309;48.858;8.252;2023-01-09T00:19:33;44.48;41.22;59.75;;
46584;Laerm;32309;48.858;8.252;2023-01-09T00:23:34;42.60;39.21;53.88;;
46584;Laerm;32309;48.858;8.252;2023-01-09T00:25:34;43.39;40.33;56.73;;
46584;Laerm;32309;48.858;8.252;2023-01-09T00:27:36;42.45;39.57;49.59;;
46584;Laerm;32309;48.858;8.252;2023-01-09T00:29:36;42.86;40.33;59.44;;
46584;Laerm;32309;48.858;8.252;2023-01-09T00:33:57;42.32;39.21;55.36;;
46584;Laerm;32309;48.858;8.252;2023-01-09T00:35:58;43.42;40.33;62.62;;
46584;Laerm;32309;48.858;8.252;2023-01-09T00:37:59;42.80;39.68;54.81;;
46584;Laerm;32309;48.858;8.252;2023-01-09T00:39:59;42.83;40.03;56.07;;
46584;Laerm;32309;48.858;8.252;2023-01-09T00:41:59;42.55;39.08;56.53;;
46584;Laerm;32309;48.858;8.252;2023-01-09T00:44:11;42.83;38.37;64.41;;
46584;Laerm;32309;48.858;8.252;2023-01-09T00:46:13;42.46;38.37;63.29;;
46584;Laerm;32309;48.858;8.252;2023-01-09T00:48:17;42.25;38.21;58.74;;
46584;Laerm;32309;48.858;8.252;2023-01-09T00:50:27;42.13;38.81;52.04;;
46584;Laerm;32309;48.858;8.252;2023-01-09T00:54:30;41.91;37.17;51.76;;
46584;Laerm;32309;48.858;8.252;2023-01-09T00:56:33;42.58;36.20;62.57;;
46584;Laerm;32309;48.858;8.252;2023-01-09T00:58:35;43.37;39.81;54.89;;
46584;Laerm;32309;48.858;8.252;2023-01-09T01:00:35;41.90;38.05;51.84;;
46584;Laerm;32309;48.858;8.252;2023-01-09T01:02:35;41.74;38.21;59.31;;
46584;Laerm;32309;48.858;8.252;2023-01-09T01:06:54;41.75;38.95;44.94;;
46584;Laerm;32309;48.858;8.252;2023-01-09T01:09:14;42.19;38.81;49.72;;
46584;Laerm;32309;48.858;8.252;2023-01-09T01:11:14;44.09;38.52;73.97;;
46584;Laerm;32309;48.858;8.252;2023-01-09T01:15:16;42.68;40.13;56.12;;
46584;Laerm;32309;48.858;8.252;2023-01-09T01:17:17;42.10;38.05;56.37;;
46584;Laerm;32309;48.858;8.252;2023-01-09T01:19:17;42.94;40.13;57.33;;
46584;Laerm;32309;48.858;8.252;2023-01-09T01:21:17;41.95;38.21;52.48;;
46584;Laerm;32309;48.858;8.252;2023-01-09T01:23:18;41.40;38.37;46.45;;
46584;Laerm;32309;48.858;8.252;2023-01-09T01:25:18;42.29;38.37;63.55;;
46584;Laerm;32309;48.858;8.252;2023-01-09T01:27:18;43.93;40.03;52.06;;
46584;Laerm;32309;48.858;8.252;2023-01-09T01:29:19;44.54;41.68;53.96;;
46584;Laerm;32309;48.858;8.252;2023-01-09T01:33:19;42.31;39.46;59.46;;
46584;Laerm;32309;48.858;8.252;2023-01-09T01:37:20;41.62;38.21;48.78;;
46584;Laerm;32309;48.858;8.252;2023-01-09T01:39:21;42.07;38.21;61.44;;
46584;Laerm;32309;48.858;8.252;2023-01-09T01:41:22;43.61;39.08;61.64;;
46584;Laerm;32309;48.858;8.252;2023-01-09T01:43:47;42.87;39.70;59.80;;
46584;Laerm;32309;48.858;8.252;2023-01-09T01:45:48;43.02;39.58;56.06;;
46584;Laerm;32309;48.858;8.252;2023-01-09T01:48:07;42.19;38.81;50.85;;
46584;Laerm;32309;48.858;8.252;2023-01-09T01:52:29;44.33;38.67;68.96;;
46584;Laerm;32309;48.858;8.252;2023-01-09T01:54:31;43.07;39.81;55.02;;
46584;Laerm;32309;48.858;8.252;2023-01-09T01:58:43;42.94;39.21;62.23;;
46584;Laerm;32309;48.858;8.252;2023-01-09T02:00:46;42.32;37.70;53.45;;
46584;Laerm;32309;48.858;8.252;2023-01-09T02:02:47;42.05;38.52;53.98;;
46584;Laerm;32309;48.858;8.252;2023-01-09T02:04:50;42.18;39.68;47.77;;
46584;Laerm;32309;48.858;8.252;2023-01-09T02:06:53;44.38;39.92;59.46;;
46584;Laerm;32309;48.858;8.252;2023-01-09T02:08:54;42.99;38.81;61.44;;
46584;Laerm;32309;48.858;8.252;2023-01-09T02:10:55;42.21;37.88;63.53;;
46584;Laerm;32309;48.858;8.252;2023-01-09T02:12:55;41.79;38.21;48.66;;
46584;Laerm;32309;48.858;8.252;2023-01-09T02:14:58;42.25;38.21;45.01;;
46584;Laerm;32309;48.858;8.252;2023-01-09T02:17:09;42.77;38.81;60.91;;
46584;Laerm;32309;48.858;8.252;2023-01-09T02:19:29;42.70;39.08;52.46;;
46584;Laerm;32309;48.858;8.252;2023-01-09T02:22:05;42.23;38.37;56.82;;
46584;Laerm;32309;48.858;8.252;2023-01-09T02:24:27;42.51;39.21;55.58;;
46584;Laerm;32309;48.858;8.252;2023-01-09T02:26:55;42.53;38.81;58.02;;
46584;Laerm;32309;48.858;8.252;2023-01-09T02:31:31;48.80;39.81;74.48;;
46584;Laerm;32309;48.858;8.252;2023-01-09T02:33:45;48.80;39.81;74.48;;
46584;Laerm;32309;48.858;8.252;2023-01-09T02:40:24;43.88;39.92;68.12;;
46584;Laerm;32309;48.858;8.252;2023-01-09T02:42:27;44.52;40.43;65.22;;
46584;Laerm;32309;48.858;8.252;2023-01-09T02:48:33;57.90;45.01;86.86;;
46584;Laerm;32309;48.858;8.252;2023-01-09T02:50:51;58.01;44.97;81.53;;
46584;Laerm;32309;48.858;8.252;2023-01-09T03:06:57;50.68;44.92;66.71;;
46584;Laerm;32309;48.858;8.252;2023-01-09T03:09:07;49.65;44.65;67.92;;
46584;Laerm;32309;48.858;8.252;2023-01-09T03:11:11;50.14;43.54;68.78;;
46584;Laerm;32309;48.858;8.252;2023-01-09T03:13:15;51.59;44.47;73.42;;
46584;Laerm;32309;48.858;8.252;2023-01-09T03:15:18;51.59;44.47;73.42;;
46584;Laerm;32309;48.858;8.252;2023-01-09T03:17:28;49.77;44.69;71.26;;
46584;Laerm;32309;48.858;8.252;2023-01-09T03:21:32;47.98;43.68;62.55;;
46584;Laerm;32309;48.858;8.252;2023-01-09T03:23:54;48.26;43.49;71.65;;
46584;Laerm;32309;48.858;8.252;2023-01-09T03:25:54;53.96;41.75;82.18;;
46584;Laerm;32309;48.858;8.252;2023-01-09T03:28:00;47.70;43.72;71.52;;
46584;Laerm;32309;48.858;8.252;2023-01-09T03:30:01;46.49;42.98;62.44;;
46584;Laerm;32309;48.858;8.252;2023-01-09T03:32:01;45.90;43.09;56.26;;
46584;Laerm;32309;48.858;8.252;2023-01-09T03:34:01;47.37;42.71;69.81;;
46584;Laerm;32309;48.858;8.252;2023-01-09T03:36:02;46.25;42.53;62.74;;
46584;Laerm;32309;48.858;8.252;2023-01-09T03:40:04;47.80;42.47;73.09;;
46584;Laerm;32309;48.858;8.252;2023-01-09T03:42:04;46.43;42.59;69.76;;
46584;Laerm;32309;48.858;8.252;2023-01-09T03:44:04;44.94;42.22;63.80;;
46584;Laerm;32309;48.858;8.252;2023-01-09T03:46:05;44.14;41.96;59.88;;
46584;Laerm;32309;48.858;8.252;2023-01-09T03:50:06;45.09;40.80;68.87;;
46584;Laerm;32309;48.858;8.252;2023-01-09T03:52:06;44.56;42.29;56.32;;
46584;Laerm;32309;48.858;8.252;2023-01-09T03:54:07;44.64;42.53;63.24;;
46584;Laerm;32309;48.858;8.252;2023-01-09T03:56:07;44.32;41.06;65.08;;
46584;Laerm;32309;48.858;8.252;2023-01-09T03:58:07;47.24;41.96;70.46;;
46584;Laerm;32309;48.858;8.252;2023-01-09T04:00:10;45.36;41.82;62.39;;
46584;Laerm;32309;48.858;8.252;2023-01-09T04:02:11;44.24;41.53;61.76;;
46584;Laerm;32309;48.858;8.252;2023-01-09T04:06:11;44.39;42.53;49.32;;
46584;Laerm;32309;48.858;8.252;2023-01-09T04:08:12;44.79;41.96;66.76;;
46584;Laerm;32309;48.858;8.252;2023-01-09T04:10:12;44.63;41.30;60.17;;
46584;Laerm;32309;48.858;8.252;2023-01-09T04:12:13;43.90;41.53;52.94;;
46584;Laerm;32309;48.858;8.252;2023-01-09T04:14:13;44.40;41.96;60.24;;
46584;Laerm;32309;48.858;8.252;2023-01-09T04:18:14;44.72;42.03;63.07;;
46584;Laerm;32309;48.858;8.252;2023-01-09T04:20:15;47.14;42.59;60.37;;
46584;Laerm;32309;48.858;8.252;2023-01-09T04:22:15;45.27;43.04;52.12;;
46584;Laerm;32309;48.858;8.252;2023-01-09T04:24:16;48.38;43.09;74.89;;
46584;Laerm;32309;48.858;8.252;2023-01-09T04:26:16;49.08;43.14;71.58;;
46584;Laerm;32309;48.858;8.252;2023-01-09T04:28:16;47.29;43.68;64.28;;
46584;Laerm;32309;48.858;8.252;2023-01-09T04:30:17;46.07;42.88;66.27;;
46584;Laerm;32309;48.858;8.252;2023-01-09T04:32:17;49.54;43.34;73.52;;
46584;Laerm;32309;48.858;8.252;2023-01-09T04:34:18;46.85;43.19;70.84;;
46584;Laerm;32309;48.858;8.252;2023-01-09T04:36:18;49.67;42.98;64.13;;
46584;Laerm;32309;48.858;8.252;2023-01-09T04:38:18;45.35;42.76;55.23;;
46584;Laerm;32309;48.858;8.252;2023-01-09T04:40:19;45.24;42.82;61.37;;
46584;Laerm;32309;48.858;8.252;2023-01-09T04:42:19;45.98;42.82;69.61;;
46584;Laerm;32309;48.858;8.252;2023-01-09T04:44:21;54.03;43.34;81.67;;
46584;Laerm;32309;48.858;8.252;2023-01-09T04:48:24;46.41;43.58;62.89;;
46584;Laerm;32309;48.858;8.252;2023-01-09T04:52:25;45.57;41.75;62.33;;
46584;Laerm;32309;48.858;8.252;2023-01-09T04:54:26;46.69;42.98;67.90;;
46584;Laerm;32309;48.858;8.252;2023-01-09T04:56:26;52.33;44.07;75.11;;
46584;Laerm;32309;48.858;8.252;2023-01-09T04:58:30;46.27;43.19;66.45;;
46584;Laerm;32309;48.858;8.252;2023-01-09T05:00:30;45.98;42.09;63.47;;
46584;Laerm;32309;48.858;8.252;2023-01-09T05:02:31;46.65;43.09;66.35;;
46584;Laerm;32309;48.858;8.252;2023-01-09T05:04:31;46.66;42.41;60.83;;
46584;Laerm;32309;48.858;8.252;2023-01-09T05:08:33;49.50;41.89;74.98;;
46584;Laerm;32309;48.858;8.252;2023-01-09T05:12:33;47.10;43.54;69.91;;
46584;Laerm;32309;48.858;8.252;2023-01-09T05:14:35;50.04;43.86;70.97;;
46584;Laerm;32309;48.858;8.252;2023-01-09T05:16:35;47.13;42.82;71.07;;
46584;Laerm;32309;48.858;8.252;2023-01-09T05:18:35;47.22;43.14;65.60;;
46584;Laerm;32309;48.858;8.252;2023-01-09T05:20:36;52.61;43.14;81.94;;
46584;Laerm;32309;48.858;8.252;2023-01-09T05:22:36;47.66;42.82;70.55;;
46584;Laerm;32309;48.858;8.252;2023-01-09T05:24:36;47.34;42.79;68.64;;
46584;Laerm;32309;48.858;8.252;2023-01-09T05:26:37;56.97;43.58;77.75;;
46584;Laerm;32309;48.858;8.252;2023-01-09T05:28:37;45.50;42.79;58.45;;
46584;Laerm;32309;48.858;8.252;2023-01-09T05:30:38;45.81;42.93;60.40;;
46584;Laerm;32309;48.858;8.252;2023-01-09T05:36:39;45.34;43.34;56.35;;
46584;Laerm;32309;48.858;8.252;2023-01-09T05:38:39;45.81;42.93;64.38;;
46584;Laerm;32309;48.858;8.252;2023-01-09T05:40:39;49.47;42.03;74.10;;
46584;Laerm;32309;48.858;8.252;2023-01-09T05:42:41;55.92;42.98;76.61;;
46584;Laerm;32309;48.858;8.252;2023-01-09T05:44:41;45.74;43.14;63.93;;
46584;Laerm;32309;48.858;8.252;2023-01-09T05:46:42;46.97;42.76;70.15;;
46584;Laerm;32309;48.858;8.252;2023-01-09T05:48:42;44.76;42.74;51.44;;
46584;Laerm;32309;48.858;8.252;2023-01-09T05:50:43;45.08;42.22;55.98;;
46584;Laerm;32309;48.858;8.252;2023-01-09T05:52:44;47.66;42.76;68.82;;
46584;Laerm;32309;48.858;8.252;2023-01-09T05:56:44;51.46;43.63;75.23;;
46584;Laerm;32309;48.858;8.252;2023-01-09T05:58:44;47.03;43.04;65.46;;
46584;Laerm;32309;48.858;8.252;2023-01-09T06:02:45;47.14;43.29;70.65;;
46584;Laerm;32309;48.858;8.252;2023-01-09T06:04:45;46.51;43.44;65.26;;
46584;Laerm;32309;48.858;8.252;2023-01-09T06:06:45;45.58;43.04;57.46;;
46584;Laerm;32309;48.858;8.252;2023-01-09T06:08:46;50.03;42.98;79.77;;
46584;Laerm;32309;48.858;8.252;2023-01-09T06:10:46;46.47;42.71;61.13;;
46584;Laerm;32309;48.858;8.252;2023-01-09T06:12:48;46.34;42.90;62.26;;
46584;Laerm;32309;48.858;8.252;2023-01-09T06:14:49;46.82;43.29;66.53;;
46584;Laerm;32309;48.858;8.252;2023-01-09T06:16:49;47.77;43.44;75.33;;
46584;Laerm;32309;48.858;8.252;2023-01-09T06:18:50;55.54;43.58;80.89;;
46584;Laerm;32309;48.858;8.252;2023-01-09T06:20:50;49.81;43.39;75.39;;
46584;Laerm;32309;48.858;8.252;2023-01-09T06:22:51;46.78;43.58;68.99;;
46584;Laerm;32309;48.858;8.252;2023-01-09T06:24:52;48.26;43.19;71.52;;
46584;Laerm;32309;48.858;8.252;2023-01-09T06:26:52;48.06;43.54;72.43;;
46584;Laerm;32309;48.858;8.252;2023-01-09T06:28:52;48.66;43.44;73.79;;
46584;Laerm;32309;48.858;8.252;2023-01-09T06:30:55;47.79;43.19;68.59;;
46584;Laerm;32309;48.858;8.252;2023-01-09T06:32:56;55.96;43.29;80.65;;
46584;Laerm;32309;48.858;8.252;2023-01-09T06:34:56;52.85;43.19;69.51;;
46584;Laerm;32309;48.858;8.252;2023-01-09T06:36:56;49.68;42.76;72.98;;
46584;Laerm;32309;48.858;8.252;2023-01-09T06:38:56;49.14;43.39;67.29;;
46584;Laerm;32309;48.858;8.252;2023-01-09T06:40:57;54.07;43.81;74.70;;
46584;Laerm;32309;48.858;8.252;2023-01-09T06:42:57;46.94;43.34;67.81;;
46584;Laerm;32309;48.858;8.252;2023-01-09T06:44:57;47.87;42.98;67.52;;
46584;Laerm;32309;48.858;8.252;2023-01-09T06:46:58;46.39;43.58;63.30;;
46584;Laerm;32309;48.858;8.252;2023-01-09T06:48:58;47.02;43.24;62.65;;
46584;Laerm;32309;48.858;8.252;2023-01-09T06:50:59;48.30;43.72;70.50;;
46584;Laerm;32309;48.858;8.252;2023-01-09T06:52:59;50.37;43.94;79.51;;
46584;Laerm;32309;48.858;8.252;2023-01-09T06:54:59;49.38;43.63;64.51;;
46584;Laerm;32309;48.858;8.252;2023-01-09T06:56:59;48.29;43.58;65.34;;
46584;Laerm;32309;48.858;8.252;2023-01-09T06:59:00;48.25;43.04;72.55;;
46584;Laerm;32309;48.858;8.252;2023-01-09T07:01:01;49.66;43.24;64.58;;
46584;Laerm;32309;48.858;8.252;2023-01-09T07:03:01;47.80;43.29;71.73;;
46584;Laerm;32309;48.858;8.252;2023-01-09T07:05:01;50.41;42.98;75.42;;
46584;Laerm;32309;48.858;8.252;2023-01-09T07:07:03;47.95;43.04;69.54;;
46584;Laerm;32309;48.858;8.252;2023-01-09T07:09:03;54.78;43.58;81.99;;
46584;Laerm;32309;48.858;8.252;2023-01-09T07:11:05;57.03;43.39;73.67;;
46584;Laerm;32309;48.858;8.252;2023-01-09T07:13:05;47.97;42.93;68.60;;
46584;Laerm;32309;48.858;8.252;2023-01-09T07:15:06;48.79;43.24;76.20;;
46584;Laerm;32309;48.858;8.252;2023-01-09T07:17:06;47.42;42.59;65.40;;
46584;Laerm;32309;48.858;8.252;2023-01-09T07:21:07;67.02;45.72;85.87;;
46584;Laerm;32309;48.858;8.252;2023-01-09T07:23:10;52.01;43.04;74.87;;
46584;Laerm;32309;48.858;8.252;2023-01-09T07:25:12;53.38;43.34;82.44;;
46584;Laerm;32309;48.858;8.252;2023-01-09T07:27:12;50.65;42.93;71.66;;
46584;Laerm;32309;48.858;8.252;2023-01-09T07:29:12;51.17;43.19;77.29;;
46584;Laerm;32309;48.858;8.252;2023-01-09T07:31:12;53.70;43.29;80.70;;
46584;Laerm;32309;48.858;8.252;2023-01-09T07:33:13;49.86;43.86;71.59;;
46584;Laerm;32309;48.858;8.252;2023-01-09T07:35:13;50.42;43.54;71.69;;
46584;Laerm;32309;48.858;8.252;2023-01-09T07:37:14;47.57;43.09;64.42;;
46584;Laerm;32309;48.858;8.252;2023-01-09T07:39:14;47.10;42.47;63.41;;
46584;Laerm;32309;48.858;8.252;2023-01-09T07:41:14;45.97;42.93;65.64;;
46584;Laerm;32309;48.858;8.252;2023-01-09T07:43:14;46.21;43.14;61.27;;
46584;Laerm;32309;48.858;8.252;2023-01-09T07:45:15;46.43;41.61;63.42;;
46584;Laerm;32309;48.858;8.252;2023-01-09T07:47:15;46.67;43.14;69.18;;
46584;Laerm;32309;48.858;8.252;2023-01-09T07:51:15;48.24;42.71;73.02;;
46584;Laerm;32309;48.858;8.252;2023-01-09T07:53:16;45.03;42.41;57.70;;
46584;Laerm;32309;48.858;8.252;2023-01-09T07:57:16;51.21;42.76;73.60;;
46584;Laerm;32309;48.858;8.252;2023-01-09T08:01:17;51.23;43.93;71.79;;
46584;Laerm;32309;48.858;8.252;2023-01-09T08:03:17;67.72;52.71;85.32;;
46584;Laerm;32309;48.858;8.252;2023-01-09T08:05:17;62.48;43.49;84.46;;
46584;Laerm;32309;48.858;8.252;2023-01-09T08:07:18;50.12;43.19;71.07;;
46584;Laerm;32309;48.858;8.252;2023-01-09T08:09:18;49.44;42.22;71.73;;
46584;Laerm;32309;48.858;8.252;2023-01-09T08:11:18;52.28;42.47;76.22;;
46584;Laerm;32309;48.858;8.252;2023-01-09T08:13:18;50.76;42.22;77.02;;
46584;Laerm;32309;48.858;8.252;2023-01-09T08:15:19;48.01;42.59;68.60;;
46584;Laerm;32309;48.858;8.252;2023-01-09T08:19:19;52.29;42.93;79.57;;
46584;Laerm;32309;48.858;8.252;2023-01-09T08:21:19;49.58;41.89;73.79;;
46584;Laerm;32309;48.858;8.252;2023-01-09T08:23:20;47.66;42.59;71.29;;
46584;Laerm;32309;48.858;8.252;2023-01-09T08:25:20;52.41;43.49;78.75;;
46584;Laerm;32309;48.858;8.252;2023-01-09T08:27:20;47.48;43.72;64.92;;
46584;Laerm;32309;48.858;8.252;2023-01-09T08:31:21;54.74;43.72;84.56;;
46584;Laerm;32309;48.858;8.252;2023-01-09T08:33:21;50.31;43.04;78.39;;
46584;Laerm;32309;48.858;8.252;2023-01-09T08:37:22;46.14;43.04;70.45;;
46584;Laerm;32309;48.858;8.252;2023-01-09T08:39:22;47.36;43.19;67.01;;
46584;Laerm;32309;48.858;8.252;2023-01-09T08:41:22;49.28;42.65;74.45;;
46584;Laerm;32309;48.858;8.252;2023-01-09T08:43:41;48.12;42.98;64.79;;
46584;Laerm;32309;48.858;8.252;2023-01-09T08:46:00;46.44;42.53;65.35;;
46584;Laerm;32309;48.858;8.252;2023-01-09T08:48:19;51.25;43.04;78.16;;
46584;Laerm;32309;48.858;8.252;2023-01-09T08:52:19;46.88;42.88;69.10;;
46584;Laerm;32309;48.858;8.252;2023-01-09T08:54:20;50.33;42.82;76.90;;
46584;Laerm;32309;48.858;8.252;2023-01-09T08:56:20;51.36;42.76;68.13;;
46584;Laerm;32309;48.858;8.252;2023-01-09T08:58:20;50.98;43.09;69.57;;
46584;Laerm;32309;48.858;8.252;2023-01-09T09:00:23;48.59;42.35;75.63;;
46584;Laerm;32309;48.858;8.252;2023-01-09T09:02:24;51.30;43.19;81.87;;
46584;Laerm;32309;48.858;8.252;2023-01-09T09:06:24;47.80;43.09;62.50;;
46584;Laerm;32309;48.858;8.252;2023-01-09T09:08:25;52.62;43.04;76.46;;
46584;Laerm;32309;48.858;8.252;2023-01-09T09:10:27;48.31;43.86;71.47;;
46584;Laerm;32309;48.858;8.252;2023-01-09T09:12:28;52.88;43.09;83.32;;
46584;Laerm;32309;48.858;8.252;2023-01-09T09:14:28;54.51;43.29;82.80;;
46584;Laerm;32309;48.858;8.252;2023-01-09T09:16:48;50.67;43.68;72.31;;
46584;Laerm;32309;48.858;8.252;2023-01-09T09:18:48;50.83;43.49;77.64;;
46584;Laerm;32309;48.858;8.252;2023-01-09T09:20:48;46.79;42.93;67.15;;
46584;Laerm;32309;48.858;8.252;2023-01-09T09:22:49;49.35;42.76;74.41;;
46584;Laerm;32309;48.858;8.252;2023-01-09T09:24:49;47.67;43.39;67.09;;
46584;Laerm;32309;48.858;8.252;2023-01-09T09:28:50;54.90;43.14;80.54;;
46584;Laerm;32309;48.858;8.252;2023-01-09T09:32:50;46.20;43.29;64.91;;
46584;Laerm;32309;48.858;8.252;2023-01-09T09:34:50;55.44;44.03;84.83;;
46584;Laerm;32309;48.858;8.252;2023-01-09T09:36:51;53.99;44.19;82.56;;
46584;Laerm;32309;48.858;8.252;2023-01-09T09:38:52;52.14;43.72;81.54;;
46584;Laerm;32309;48.858;8.252;2023-01-09T09:43:26;46.81;42.71;59.76;;
46584;Laerm;32309;48.858;8.252;2023-01-09T09:46:19;53.15;42.98;79.33;;
46584;Laerm;32309;48.858;8.252;2023-01-09T09:48:37;53.73;43.19;78.87;;
46584;Laerm;32309;48.858;8.252;2023-01-09T09:55:33;46.18;42.95;62.94;;
46584;Laerm;32309;48.858;8.252;2023-01-09T09:57:35;47.90;42.41;70.64;;
46584;Laerm;32309;48.858;8.252;2023-01-09T09:59:37;61.82;43.54;78.04;;
46584;Laerm;32309;48.858;8.252;2023-01-09T10:01:43;50.12;43.46;77.86;;
46584;Laerm;32309;48.858;8.252;2023-01-09T10:03:51;50.28;43.72;71.23;;
46584;Laerm;32309;48.858;8.252;2023-01-09T10:05:53;55.89;43.63;81.19;;
46584;Laerm;32309;48.858;8.252;2023-01-09T10:07:56;59.39;43.63;84.92;;
46584;Laerm;32309;48.858;8.252;2023-01-09T10:10:02;55.99;43.72;80.49;;
46584;Laerm;32309;48.858;8.252;2023-01-09T10:12:16;49.47;43.24;66.10;;
46584;Laerm;32309;48.858;8.252;2023-01-09T10:19:15;48.99;43.29;69.36;;
46584;Laerm;32309;48.858;8.252;2023-01-09T10:21:36;52.16;43.44;78.26;;
46584;Laerm;32309;48.858;8.252;2023-01-09T10:25:55;49.55;43.99;74.01;;
46584;Laerm;32309;48.858;8.252;2023-01-09T10:32:47;63.17;44.07;88.37;;
46584;Laerm;32309;48.858;8.252;2023-01-09T10:37:44;50.08;43.68;75.32;;
46584;Laerm;32309;48.858;8.252;2023-01-09T10:39:54;51.18;43.44;73.71;;
46584;Laerm;32309;48.858;8.252;2023-01-09T10:46:21;57.07;44.43;82.20;;
46584;Laerm;32309;48.858;8.252;2023-01-09T10:48:31;62.93;44.54;93.98;;
46584;Laerm;32309;48.858;8.252;2023-01-09T10:50:34;50.97;43.54;73.49;;
46584;Laerm;32309;48.858;8.252;2023-01-09T10:52:40;54.84;44.19;83.48;;
46584;Laerm;32309;48.858;8.252;2023-01-09T10:54:54;52.35;44.23;76.98;;
46584;Laerm;32309;48.858;8.252;2023-01-09T10:57:01;51.47;44.76;73.15;;
46584;Laerm;32309;48.858;8.252;2023-01-09T10:59:04;53.15;43.93;74.76;;
46584;Laerm;32309;48.858;8.252;2023-01-09T11:01:05;51.20;43.24;71.80;;
46584;Laerm;32309;48.858;8.252;2023-01-09T11:03:18;59.54;44.90;87.34;;
46584;Laerm;32309;48.858;8.252;2023-01-09T11:05:24;52.57;44.03;76.97;;
46584;Laerm;32309;48.858;8.252;2023-01-09T11:07:28;61.10;44.43;89.86;;
46584;Laerm;32309;48.858;8.252;2023-01-09T11:09:59;54.14;44.03;76.42;;
46584;Laerm;32309;48.858;8.252;2023-01-09T11:12:24;58.20;44.47;83.99;;
46584;Laerm;32309;48.858;8.252;2023-01-09T11:14:26;55.18;44.73;85.16;;
46584;Laerm;32309;48.858;8.252;2023-01-09T11:16:27;54.93;45.11;77.67;;
46584;Laerm;32309;48.858;8.252;2023-01-09T11:18:27;50.77;44.86;76.51;;
46584;Laerm;32309;48.858;8.252;2023-01-09T11:20:28;55.07;45.25;81.88;;
46584;Laerm;32309;48.858;8.252;2023-01-09T11:22:44;49.06;44.62;66.97;;
46584;Laerm;32309;48.858;8.252;2023-01-09T11:25:01;50.76;45.66;63.84;;
46584;Laerm;32309;48.858;8.252;2023-01-09T11:27:22;53.72;45.23;69.82;;
46584;Laerm;32309;48.858;8.252;2023-01-09T11:29:23;51.89;44.97;77.62;;
46584;Laerm;32309;48.858;8.252;2023-01-09T11:31:26;54.67;45.75;77.72;;
46584;Laerm;32309;48.858;8.252;2023-01-09T11:35:36;50.78;44.65;79.93;;
46584;Laerm;32309;48.858;8.252;2023-01-09T11:37:37;50.66;44.83;76.69;;
46584;Laerm;32309;48.858;8.252;2023-01-09T11:39:39;49.58;44.76;73.81;;
46584;Laerm;32309;48.858;8.252;2023-01-09T11:41:44;48.86;45.36;71.51;;
46584;Laerm;32309;48.858;8.252;2023-01-09T11:43:46;53.70;45.99;76.55;;
46584;Laerm;32309;48.858;8.252;2023-01-09T11:47:51;54.15;45.11;78.56;;
46584;Laerm;32309;48.858;8.252;2023-01-09T11:50:06;52.33;45.20;80.98;;
46584;Laerm;32309;48.858;8.252;2023-01-09T11:52:16;49.83;44.58;70.34;;
46584;Laerm;32309;48.858;8.252;2023-01-09T11:56:30;50.14;44.54;72.74;;
46584;Laerm;32309;48.858;8.252;2023-01-09T11:58:33;50.32;44.76;71.64;;
46584;Laerm;32309;48.858;8.252;2023-01-09T12:00:53;51.18;44.73;74.97;;
46584;Laerm;32309;48.858;8.252;2023-01-09T12:12:07;59.24;45.60;85.83;;
46584;Laerm;32309;48.858;8.252;2023-01-09T12:14:20;53.85;45.30;77.16;;
46584;Laerm;32309;48.858;8.252;2023-01-09T12:16:42;48.87;44.69;65.84;;
46584;Laerm;32309;48.858;8.252;2023-01-09T12:18:59;56.77;45.57;79.54;;
46584;Laerm;32309;48.858;8.252;2023-01-09T12:23:40;53.51;44.76;78.58;;
46584;Laerm;32309;48.858;8.252;2023-01-09T12:26:17;50.88;45.89;67.19;;
46584;Laerm;32309;48.858;8.252;2023-01-09T12:30:48;57.21;46.66;83.24;;
46584;Laerm;32309;48.858;8.252;2023-01-09T12:33:42;54.09;46.38;77.79;;
46584;Laerm;32309;48.858;8.252;2023-01-09T12:50:37;50.33;44.27;66.41;;
46584;Laerm;32309;48.858;8.252;2023-01-09T12:52:45;51.52;44.15;80.25;;
46584;Laerm;32309;48.858;8.252;2023-01-09T12:54:55;48.33;43.90;63.13;;
46584;Laerm;32309;48.858;8.252;2023-01-09T12:57:03;48.33;43.90;63.13;;
46584;Laerm;32309;48.858;8.252;2023-01-09T13:01:33;48.16;43.34;64.21;;
46584;Laerm;32309;48.858;8.252;2023-01-09T13:03:45;52.22;43.86;77.38;;
46584;Laerm;32309;48.858;8.252;2023-01-09T13:05:51;53.44;43.39;76.53;;
46584;Laerm;32309;48.858;8.252;2023-01-09T13:08:02;49.86;43.49;71.13;;
46584;Laerm;32309;48.858;8.252;2023-01-09T13:12:18;60.78;43.68;80.12;;
46584;Laerm;32309;48.858;8.252;2023-01-09T13:14:51;49.32;43.81;63.18;;
46584;Laerm;32309;48.858;8.252;2023-01-09T13:16:55;48.48;44.03;67.56;;
46584;Laerm;32309;48.858;8.252;2023-01-09T13:19:04;48.45;44.27;69.07;;
46584;Laerm;32309;48.858;8.252;2023-01-09T13:21:06;49.40;43.94;73.37;;
46584;Laerm;32309;48.858;8.252;2023-01-09T13:23:21;56.49;44.15;82.29;;
46584;Laerm;32309;48.858;8.252;2023-01-09T13:25:37;50.46;43.44;71.24;;
46584;Laerm;32309;48.858;8.252;2023-01-09T13:27:40;48.12;44.15;67.73;;
46584;Laerm;32309;48.858;8.252;2023-01-09T13:29:47;50.26;43.77;81.97;;
46584;Laerm;32309;48.858;8.252;2023-01-09T13:34:11;53.11;43.37;82.06;;
46584;Laerm;32309;48.858;8.252;2023-01-09T13:36:26;51.54;43.09;78.55;;
46584;Laerm;32309;48.858;8.252;2023-01-09T13:38:29;49.57;42.88;75.55;;
46584;Laerm;32309;48.858;8.252;2023-01-09T13:40:30;47.43;43.34;67.54;;
46584;Laerm;32309;48.858;8.252;2023-01-09T13:42:32;50.70;43.34;76.92;;
46584;Laerm;32309;48.858;8.252;2023-01-09T13:46:43;50.93;44.19;72.24;;
46584;Laerm;32309;48.858;8.252;2023-01-09T13:48:45;47.67;43.54;67.37;;
46584;Laerm;32309;48.858;8.252;2023-01-09T13:50:46;50.03;43.29;70.69;;
46584;Laerm;32309;48.858;8.252;2023-01-09T13:52:46;47.16;44.19;53.25;;
46584;Laerm;32309;48.858;8.252;2023-01-09T13:59:25;48.60;43.72;77.77;;
46584;Laerm;32309;48.858;8.252;2023-01-09T14:01:40;55.42;44.27;78.38;;
46584;Laerm;32309;48.858;8.252;2023-01-09T14:03:40;46.84;44.19;62.07;;
46584;Laerm;32309;48.858;8.252;2023-01-09T14:07:42;48.06;44.19;61.51;;
46584;Laerm;32309;48.858;8.252;2023-01-09T14:09:47;47.97;44.15;53.29;;
46584;Laerm;32309;48.858;8.252;2023-01-09T14:12:01;48.71;44.23;69.93;;
46584;Laerm;32309;48.858;8.252;2023-01-09T14:16:16;54.28;47.06;73.32;;
46584;Laerm;32309;48.858;8.252;2023-01-09T14:18:24;55.71;50.11;73.12;;
46584;Laerm;32309;48.858;8.252;2023-01-09T14:22:56;58.04;51.97;79.57;;
46584;Laerm;32309;48.858;8.252;2023-01-09T14:25:06;57.51;48.58;77.78;;
46584;Laerm;32309;48.858;8.252;2023-01-09T14:29:46;53.59;49.40;70.68;;
46584;Laerm;32309;48.858;8.252;2023-01-09T14:31:47;51.29;46.91;62.42;;
46584;Laerm;32309;48.858;8.252;2023-01-09T14:33:47;47.82;44.35;64.95;;
46584;Laerm;32309;48.858;8.252;2023-01-09T14:38:01;46.95;44.19;59.92;;